createdAt,value
2023-01-11T00:00:18.905Z,122.68
2023-01-11T00:01:41.834Z,225.98
2023-01-11T00:03:06.233Z,251.30
2023-01-11T00:04:30.520Z,160.77
2023-01-11T00:05:56.804Z,174.75
2023-01-11T00:07:19.720Z,174.55
2023-01-11T00:08:41.447Z,212.20
2023-01-11T00:10:04.756Z,199.75
2023-01-11T00:11:26.820Z,139.20
2023-01-11T00:12:49.895Z,243.88
2023-01-11T00:14:11.923Z,133.48
2023-01-11T00:15:36.248Z,215.85
2023-01-11T00:16:59.748Z,165.40
2023-01-11T00:18:25.866Z,102.80
2023-01-11T00:19:47.680Z,100.85
2023-01-11T00:21:11.642Z,147.38
2023-01-11T00:22:33.415Z,204.38
2023-01-11T00:23:56.223Z,242.57
2023-01-11T00:25:19.068Z,115.03
2023-01-11T00:26:42.036Z,212.63
2023-01-11T00:28:04.296Z,107.38
2023-01-11T00:29:27.880Z,97.57
2023-01-11T00:30:50.780Z,113.28
2023-01-11T00:32:13.595Z,272.85
2023-01-11T00:33:37.680Z,288.70
2023-01-11T00:34:59.935Z,288.65
2023-01-11T00:36:22.696Z,217.68
2023-01-11T00:37:44.504Z,205.57
2023-01-11T00:39:07.233Z,165.52
2023-01-11T00:40:48.452Z,134.00
2023-01-11T00:42:29.404Z,107.07
2023-01-11T00:44:10.290Z,146.15
2023-01-11T00:45:50.575Z,210.57
2023-01-11T00:47:37.712Z,132.10
2023-01-11T00:49:01.764Z,80.43
2023-01-11T00:50:23.906Z,98.85
2023-01-11T00:51:46.683Z,166.32
2023-01-11T00:53:10.316Z,117.35
2023-01-11T00:54:32.023Z,140.75
2023-01-11T00:55:54.949Z,91.82
2023-01-11T00:57:16.807Z,109.80
2023-01-11T00:58:39.625Z,111.75
2023-01-11T01:00:01.991Z,130.75
2023-01-11T01:01:25.226Z,153.70
2023-01-11T01:02:48.580Z,93.45
2023-01-11T01:04:11.821Z,126.70
2023-01-11T01:05:34.703Z,53.13
2023-01-11T01:06:56.738Z,60.58
2023-01-11T01:08:19.745Z,63.40
2023-01-11T01:09:41.914Z,70.70
2023-01-11T01:11:04.681Z,89.20
2023-01-11T01:12:44.873Z,74.65
2023-01-11T01:14:25.069Z,60.85
2023-01-11T01:15:47.935Z,123.50
2023-01-11T01:17:09.750Z,85.15
2023-01-11T01:18:32.535Z,111.95
2023-01-11T01:19:55.656Z,143.57
2023-01-11T01:21:18.390Z,112.75
2023-01-11T01:22:40.157Z,120.50
2023-01-11T01:24:02.960Z,111.57
2023-01-11T01:25:25.805Z,186.20
2023-01-11T01:26:48.156Z,87.97
2023-01-11T01:28:10.936Z,110.55
2023-01-11T01:29:33.745Z,81.32
2023-01-11T01:30:55.571Z,53.95
2023-01-11T01:32:18.407Z,114.18
2023-01-11T01:33:40.507Z,125.18
2023-01-11T01:35:04.960Z,82.28
2023-01-11T01:36:26.720Z,94.53
2023-01-11T01:37:49.504Z,78.32
2023-01-11T01:39:11.875Z,63.35
2023-01-11T01:40:34.745Z,95.75
2023-01-11T01:41:57.620Z,79.07
2023-01-11T01:43:19.717Z,79.88
2023-01-11T01:44:59.384Z,74.35
2023-01-11T01:46:24.723Z,77.55
2023-01-11T01:47:49.016Z,106.95
2023-01-11T01:49:14.542Z,81.43
2023-01-11T01:50:39.382Z,114.25
2023-01-11T01:52:02.760Z,209.63
2023-01-11T01:53:29.664Z,261.20
2023-01-11T01:54:51.909Z,486.10
2023-01-11T01:56:17.250Z,572.90
2023-01-11T01:57:40.778Z,567.97
2023-01-11T01:59:07.786Z,616.10
2023-01-11T02:00:30.743Z,303.13
2023-01-11T02:01:52.894Z,442.25
2023-01-11T02:03:18.496Z,100.43
2023-01-11T02:04:42.244Z,164.13
2023-01-11T02:06:07.250Z,310.50
2023-01-11T02:07:33.175Z,561.42
2023-01-11T02:08:59.023Z,325.77
2023-01-11T02:10:23.338Z,182.15
2023-01-11T02:11:45.711Z,206.50
2023-01-11T02:13:10.997Z,338.13
2023-01-11T02:14:35.406Z,132.52
2023-01-11T02:15:38.470Z,129.55
2023-01-11T02:16:40.636Z,124.85
2023-01-11T02:17:43.473Z,165.10
2023-01-11T02:18:45.450Z,140.82
2023-01-11T02:19:54.712Z,220.98
2023-01-11T02:21:12.668Z,186.93
2023-01-11T02:22:34.011Z,125.40
2023-01-11T02:23:52.039Z,99.63
2023-01-11T02:25:10.626Z,89.13
2023-01-11T02:26:36.008Z,96.70
2023-01-11T02:27:55.605Z,107.05
2023-01-11T02:29:01.782Z,305.00
2023-01-11T02:30:10.881Z,376.25
2023-01-11T02:31:17.170Z,480.35
2023-01-11T02:32:26.948Z,494.55
2023-01-11T02:33:33.216Z,302.42
2023-01-11T02:34:41.898Z,219.95
2023-01-11T02:35:52.349Z,113.25
2023-01-11T02:37:06.812Z,272.15
2023-01-11T02:38:14.415Z,211.27
2023-01-11T02:39:22.485Z,186.18
2023-01-11T02:40:28.065Z,154.32
2023-01-11T02:41:56.032Z,328.23
2023-01-11T02:43:22.706Z,398.80
2023-01-11T02:44:45.337Z,208.80
2023-01-11T02:45:51.563Z,307.48
2023-01-11T02:46:57.890Z,425.88
2023-01-11T02:48:02.524Z,538.05
2023-01-11T02:49:10.618Z,572.90
2023-01-11T02:50:18.478Z,341.10
2023-01-11T02:51:25.079Z,347.48
2023-01-11T02:52:31.963Z,218.80
2023-01-11T02:53:38.786Z,282.52
2023-01-11T02:54:42.486Z,261.55
2023-01-11T02:55:48.466Z,235.23
2023-01-11T02:56:53.156Z,226.52
2023-01-11T02:57:57.458Z,170.50
2023-01-11T02:59:02.519Z,228.75
2023-01-11T03:00:06.816Z,198.65
2023-01-11T03:01:09.572Z,209.90
2023-01-11T03:02:14.023Z,171.88
2023-01-11T03:03:17.843Z,261.30
2023-01-11T03:04:25.486Z,210.82
2023-01-11T03:05:27.385Z,198.73
2023-01-11T03:06:33.434Z,151.80
2023-01-11T03:07:43.755Z,99.82
2023-01-11T03:09:02.137Z,95.50
2023-01-11T03:10:11.385Z,111.65
2023-01-11T03:11:36.683Z,238.63
2023-01-11T03:12:54.920Z,164.63
2023-01-11T03:14:05.054Z,280.50
2023-01-11T03:15:17.350Z,295.95
2023-01-11T03:16:26.389Z,236.68
2023-01-11T03:17:39.639Z,204.82
2023-01-11T03:18:48.024Z,252.95
2023-01-11T03:19:52.823Z,421.70
2023-01-11T03:21:00.178Z,368.50
2023-01-11T03:22:06.721Z,307.30
2023-01-11T03:23:15.156Z,148.80
2023-01-11T03:24:27.900Z,218.73
2023-01-11T03:25:34.196Z,115.90
2023-01-11T03:26:45.706Z,96.68
2023-01-11T03:27:52.632Z,99.22
2023-01-11T03:29:01.804Z,103.78
2023-01-11T03:30:08.975Z,84.15
2023-01-11T03:31:16.339Z,97.00
2023-01-11T03:32:24.339Z,99.80
2023-01-11T03:33:33.946Z,314.42
2023-01-11T03:34:38.717Z,469.85
2023-01-11T03:35:46.103Z,451.42
2023-01-11T03:36:50.953Z,489.77
2023-01-11T03:37:56.664Z,245.55
2023-01-11T03:39:01.162Z,275.40
2023-01-11T03:40:09.360Z,294.90
2023-01-11T03:41:14.955Z,321.98
2023-01-11T03:42:18.587Z,397.75
2023-01-11T03:43:21.758Z,394.00
2023-01-11T03:44:26.544Z,302.67
2023-01-11T03:45:31.055Z,166.57
2023-01-11T03:46:37.237Z,161.75
2023-01-11T03:47:39.220Z,112.22
2023-01-11T03:48:46.062Z,102.32
2023-01-11T03:49:50.686Z,152.85
2023-01-11T03:50:54.864Z,262.80
2023-01-11T03:51:58.251Z,189.73
2023-01-11T03:53:01.830Z,188.80
2023-01-11T03:54:06.879Z,207.52
2023-01-11T03:55:11.542Z,142.30
2023-01-11T03:56:17.139Z,181.98
2023-01-11T03:57:22.471Z,343.95
2023-01-11T03:58:25.822Z,124.32
2023-01-11T03:59:29.012Z,273.92
2023-01-11T04:00:32.689Z,317.52
2023-01-11T04:01:35.518Z,280.58
2023-01-11T04:02:40.585Z,152.30
2023-01-11T04:03:43.362Z,214.13
2023-01-11T04:04:45.195Z,109.30
2023-01-11T04:05:51.743Z,118.82
2023-01-11T04:06:53.837Z,152.00
2023-01-11T04:07:56.750Z,277.00
2023-01-11T04:08:58.593Z,314.95
2023-01-11T04:10:01.427Z,248.02
2023-01-11T04:11:03.954Z,436.88
2023-01-11T04:12:07.265Z,360.80
2023-01-11T04:13:09.115Z,155.98
2023-01-11T04:14:11.958Z,134.23
2023-01-11T04:15:14.985Z,133.63
2023-01-11T04:16:19.247Z,125.13
2023-01-11T04:17:21.107Z,193.50
2023-01-11T04:18:23.905Z,179.40
2023-01-11T04:19:25.789Z,372.15
2023-01-11T04:20:28.548Z,413.15
2023-01-11T04:21:30.396Z,458.17
2023-01-11T04:22:33.221Z,374.40
2023-01-11T04:23:35.666Z,399.50
2023-01-11T04:24:38.491Z,313.23
2023-01-11T04:25:40.278Z,296.88
2023-01-11T04:26:43.011Z,317.45
2023-01-11T04:27:45.021Z,318.50
2023-01-11T04:28:47.825Z,434.67
2023-01-11T04:29:49.593Z,287.05
2023-01-11T04:30:52.420Z,201.07
2023-01-11T04:31:55.697Z,152.20
2023-01-11T04:32:58.839Z,180.90
2023-01-11T04:34:00.683Z,226.80
2023-01-11T04:35:03.474Z,349.48
2023-01-11T04:36:06.342Z,387.52
2023-01-11T04:37:09.523Z,334.40
2023-01-11T04:38:11.532Z,278.15
2023-01-11T04:39:14.463Z,258.45
2023-01-11T04:40:16.978Z,174.80
2023-01-11T04:41:37.268Z,132.98
2023-01-11T04:42:40.268Z,123.50
2023-01-11T04:43:42.376Z,123.40
2023-01-11T04:44:45.480Z,138.25
2023-01-11T04:45:48.240Z,127.32
2023-01-11T04:46:50.294Z,218.43
2023-01-11T04:47:56.730Z,245.95
2023-01-11T04:48:58.976Z,160.40
2023-01-11T04:50:02.163Z,259.13
2023-01-11T04:51:04.287Z,144.25
2023-01-11T04:52:07.103Z,147.35
2023-01-11T04:53:08.874Z,208.27
2023-01-11T04:54:11.620Z,329.27
2023-01-11T04:55:13.413Z,587.85
2023-01-11T04:56:16.827Z,617.85
2023-01-11T04:57:18.641Z,591.38
2023-01-11T04:58:21.800Z,670.60
2023-01-11T04:59:23.861Z,622.53
2023-01-11T05:00:26.618Z,462.23
2023-01-11T05:01:28.460Z,339.33
2023-01-11T05:02:31.304Z,236.32
2023-01-11T05:03:34.632Z,200.95
2023-01-11T05:04:37.465Z,230.65
2023-01-11T05:05:39.301Z,200.38
2023-01-11T05:06:43.073Z,163.35
2023-01-11T05:07:44.919Z,161.05
2023-01-11T05:08:48.337Z,216.75
2023-01-11T05:09:51.148Z,174.77
2023-01-11T05:10:53.513Z,157.90
2023-01-11T05:11:56.275Z,227.60
2023-01-11T05:12:58.039Z,278.95
2023-01-11T05:14:00.854Z,267.88
2023-01-11T05:15:02.702Z,313.80
2023-01-11T05:16:06.180Z,410.23
2023-01-11T05:17:08.948Z,215.45
2023-01-11T05:18:11.107Z,134.15
2023-01-11T05:19:15.182Z,119.93
2023-01-11T05:20:17.216Z,123.22
2023-01-11T05:21:20.905Z,125.07
2023-01-11T05:22:22.687Z,106.43
2023-01-11T05:23:25.399Z,127.38
2023-01-11T05:24:28.157Z,131.15
2023-01-11T05:25:29.942Z,109.57
2023-01-11T05:26:35.080Z,123.38
2023-01-11T05:27:36.960Z,128.35
2023-01-11T05:28:39.849Z,112.75
2023-01-11T05:29:41.621Z,106.93
2023-01-11T05:30:44.751Z,123.05
2023-01-11T05:31:46.898Z,138.05
2023-01-11T05:32:49.762Z,135.10
2023-01-11T05:33:51.961Z,149.10
2023-01-11T05:34:56.056Z,137.00
2023-01-11T05:35:58.961Z,157.25
2023-01-11T05:37:02.063Z,129.20
2023-01-11T05:38:03.905Z,130.50
2023-01-11T05:39:06.958Z,134.73
2023-01-11T05:40:10.031Z,139.65
2023-01-11T05:41:14.903Z,139.98
2023-01-11T05:42:17.687Z,133.57
2023-01-11T05:43:19.488Z,126.72
2023-01-11T05:44:39.703Z,121.80
2023-01-11T05:45:41.520Z,128.30
2023-01-11T05:46:45.349Z,117.32
2023-01-11T05:47:47.117Z,120.45
2023-01-11T05:48:50.328Z,118.35
2023-01-11T05:49:52.373Z,133.35
2023-01-11T05:50:57.242Z,159.98
2023-01-11T05:51:59.073Z,116.47
2023-01-11T05:53:02.153Z,112.80
2023-01-11T05:54:05.544Z,107.72
2023-01-11T05:55:09.545Z,111.03
2023-01-11T05:56:11.867Z,126.38
2023-01-11T05:57:14.772Z,136.18
2023-01-11T05:58:16.558Z,168.27
2023-01-11T05:59:19.407Z,106.53
2023-01-11T06:00:22.015Z,130.45
2023-01-11T06:01:26.202Z,115.60
2023-01-11T06:02:28.278Z,133.50
2023-01-11T06:03:31.102Z,141.27
2023-01-11T06:04:32.954Z,114.90
2023-01-11T06:05:36.006Z,134.30
2023-01-11T06:06:42.704Z,122.65
2023-01-11T06:07:44.889Z,140.55
2023-01-11T06:08:48.077Z,125.13
2023-01-11T06:09:49.843Z,152.30
2023-01-11T06:10:53.057Z,171.00
2023-01-11T06:11:56.297Z,185.15
2023-01-11T06:13:13.024Z,203.68
2023-01-11T06:14:15.892Z,203.27
2023-01-11T06:15:17.702Z,236.02
2023-01-11T06:16:22.097Z,350.73
2023-01-11T06:17:23.888Z,371.63
2023-01-11T06:18:27.016Z,418.80
2023-01-11T06:19:28.786Z,515.13
2023-01-11T06:20:31.527Z,546.58
2023-01-11T06:21:35.578Z,623.17
2023-01-11T06:22:38.758Z,583.85
2023-01-11T06:23:42.935Z,638.38
2023-01-11T06:24:45.782Z,594.63
2023-01-11T06:25:47.677Z,620.05
2023-01-11T06:26:53.258Z,649.13
2023-01-11T06:27:55.141Z,703.42
2023-01-11T06:28:57.988Z,448.35
2023-01-11T06:29:59.783Z,515.55
2023-01-11T06:31:02.854Z,651.28
2023-01-11T06:32:06.131Z,563.97
2023-01-11T06:33:08.167Z,538.97
2023-01-11T06:34:11.573Z,533.22
2023-01-11T06:35:13.443Z,521.08
2023-01-11T06:36:16.576Z,659.25
2023-01-11T06:37:18.602Z,538.95
2023-01-11T06:38:24.270Z,676.25
2023-01-11T06:39:27.144Z,519.45
2023-01-11T06:40:29.519Z,634.60
2023-01-11T06:41:32.525Z,634.35
2023-01-11T06:42:34.344Z,636.60
2023-01-11T06:43:38.170Z,661.17
2023-01-11T06:44:39.994Z,544.05
2023-01-11T06:45:45.563Z,586.67
2023-01-11T06:46:48.642Z,662.35
2023-01-11T06:47:51.602Z,409.17
2023-01-11T06:48:53.453Z,529.20
2023-01-11T06:49:56.485Z,577.85
2023-01-11T06:50:58.779Z,603.47
2023-01-11T06:52:01.510Z,621.92
2023-01-11T06:53:03.439Z,563.28
2023-01-11T06:54:07.671Z,485.70
2023-01-11T06:55:10.405Z,564.10
2023-01-11T06:56:15.056Z,527.13
2023-01-11T06:57:16.929Z,578.47
2023-01-11T06:58:19.807Z,493.25
2023-01-11T06:59:22.653Z,512.20
2023-01-11T07:00:25.342Z,602.50
2023-01-11T07:01:30.386Z,588.95
2023-01-11T07:02:32.869Z,497.63
2023-01-11T07:03:35.620Z,590.65
2023-01-11T07:04:37.431Z,423.33
2023-01-11T07:05:56.941Z,531.28
2023-01-11T07:06:59.103Z,581.72
2023-01-11T07:08:14.062Z,522.20
2023-01-11T07:09:35.353Z,429.88
2023-01-11T07:10:51.344Z,403.42
2023-01-11T07:12:14.384Z,527.85
2023-01-11T07:13:34.120Z,501.73
2023-01-11T07:14:54.035Z,433.77
2023-01-11T07:16:11.320Z,518.70
2023-01-11T07:17:33.118Z,446.95
2023-01-11T07:18:51.219Z,378.08
2023-01-11T07:20:14.623Z,467.52
2023-01-11T07:21:34.077Z,500.83
2023-01-11T07:22:51.708Z,482.33
2023-01-11T07:24:14.144Z,476.35
2023-01-11T07:25:32.632Z,476.05
2023-01-11T07:26:41.038Z,472.33
2023-01-11T07:27:42.837Z,278.65
2023-01-11T07:28:46.947Z,450.10
2023-01-11T07:29:48.690Z,513.50
2023-01-11T07:30:58.847Z,453.88
2023-01-11T07:32:01.279Z,482.17
2023-01-11T07:33:06.316Z,495.77
2023-01-11T07:34:09.822Z,433.90
2023-01-11T07:35:12.042Z,368.10
2023-01-11T07:36:14.816Z,333.90
2023-01-11T07:37:28.526Z,385.73
2023-01-11T07:38:32.166Z,406.08
2023-01-11T07:39:43.108Z,407.17
2023-01-11T07:40:47.829Z,476.65
2023-01-11T07:42:08.142Z,462.63
2023-01-11T07:43:14.162Z,394.17
2023-01-11T07:44:17.110Z,350.83
2023-01-11T07:45:19.244Z,423.45
2023-01-11T07:46:22.093Z,423.83
2023-01-11T07:47:23.881Z,422.92
2023-01-11T07:48:27.707Z,450.50
2023-01-11T07:49:29.695Z,427.88
2023-01-11T07:50:32.621Z,266.38
2023-01-11T07:51:34.889Z,421.88
2023-01-11T07:52:37.632Z,533.90
2023-01-11T07:53:40.433Z,371.60
2023-01-11T07:54:42.295Z,342.83
2023-01-11T07:55:45.055Z,444.27
2023-01-11T07:56:49.216Z,382.77
2023-01-11T07:57:51.260Z,413.83
2023-01-11T07:58:54.026Z,396.60
2023-01-11T07:59:55.761Z,484.67
2023-01-11T08:01:00.307Z,402.90
2023-01-11T08:02:02.111Z,493.02
2023-01-11T08:03:05.353Z,499.23
2023-01-11T08:04:08.442Z,488.30
2023-01-11T08:05:11.286Z,453.88
2023-01-11T08:06:14.537Z,393.40
2023-01-11T08:07:16.381Z,506.75
2023-01-11T08:08:19.335Z,594.53
2023-01-11T08:09:21.108Z,636.40
2023-01-11T08:10:24.153Z,306.85
2023-01-11T08:11:44.597Z,470.90
2023-01-11T08:13:06.914Z,532.40
2023-01-11T08:14:29.212Z,478.95
2023-01-11T08:15:32.338Z,575.08
2023-01-11T08:16:34.157Z,501.00
2023-01-11T08:17:38.935Z,561.60
2023-01-11T08:18:40.714Z,349.48
2023-01-11T08:19:44.264Z,535.55
2023-01-11T08:20:47.609Z,294.48
2023-01-11T08:21:49.958Z,361.02
2023-01-11T08:22:53.052Z,203.35
2023-01-11T08:23:55.552Z,347.13
2023-01-11T08:24:58.325Z,293.65
2023-01-11T08:26:04.044Z,112.03
2023-01-11T08:27:06.904Z,130.93
2023-01-11T08:28:13.138Z,112.50
2023-01-11T08:29:15.455Z,225.05
2023-01-11T08:30:19.069Z,282.98
2023-01-11T08:31:21.442Z,231.13
2023-01-11T08:32:24.279Z,291.73
2023-01-11T08:33:26.172Z,249.35
2023-01-11T08:34:29.183Z,223.70
2023-01-11T08:35:31.580Z,295.80
2023-01-11T08:36:34.417Z,255.60
2023-01-11T08:37:37.186Z,214.65
2023-01-11T08:38:39.778Z,185.13
2023-01-11T08:39:43.204Z,156.65
2023-01-11T08:40:45.040Z,149.52
2023-01-11T08:41:47.846Z,141.98
2023-01-11T08:42:50.836Z,162.65
2023-01-11T08:43:54.961Z,149.07
2023-01-11T08:44:57.695Z,222.25
2023-01-11T08:45:59.954Z,189.50
2023-01-11T08:47:03.087Z,258.35
2023-01-11T08:48:06.203Z,207.15
2023-01-11T08:49:12.228Z,123.57
2023-01-11T08:50:16.283Z,204.73
2023-01-11T08:51:18.169Z,227.05
2023-01-11T08:52:39.208Z,206.48
2023-01-11T08:53:40.992Z,245.07
2023-01-11T08:54:44.042Z,213.50
2023-01-11T08:55:47.793Z,369.83
2023-01-11T08:56:50.592Z,274.70
2023-01-11T08:57:53.378Z,288.90
2023-01-11T08:58:56.595Z,242.20
2023-01-11T08:59:59.581Z,251.00
2023-01-11T09:01:03.763Z,301.40
2023-01-11T09:02:07.654Z,274.58
2023-01-11T09:03:11.795Z,127.00
2023-01-11T09:04:24.212Z,100.63
2023-01-11T09:05:28.404Z,72.03
2023-01-11T09:06:30.252Z,85.25
2023-01-11T09:07:33.001Z,76.53
2023-01-11T09:08:35.234Z,132.38
2023-01-11T09:09:37.970Z,105.88
2023-01-11T09:10:39.771Z,127.47
2023-01-11T09:11:58.858Z,76.88
2023-01-11T09:13:01.091Z,75.88
2023-01-11T09:14:05.364Z,91.95
2023-01-11T09:15:09.680Z,116.45
2023-01-11T09:16:11.557Z,66.85
2023-01-11T09:17:14.391Z,92.43
2023-01-11T09:18:16.260Z,71.15
2023-01-11T09:19:19.063Z,62.08
2023-01-11T09:20:22.185Z,66.05
2023-01-11T09:21:24.882Z,81.70
2023-01-11T09:22:27.850Z,80.30
2023-01-11T09:23:29.588Z,79.53
2023-01-11T09:24:32.700Z,85.03
2023-01-11T09:25:34.619Z,73.82
2023-01-11T09:26:38.329Z,67.30
2023-01-11T09:27:44.000Z,66.45
2023-01-11T09:28:45.890Z,75.80
2023-01-11T09:29:50.130Z,76.13
2023-01-11T09:30:53.499Z,88.50
2023-01-11T09:31:56.433Z,86.88
2023-01-11T09:32:58.350Z,83.78
2023-01-11T09:34:01.278Z,73.43
2023-01-11T09:35:04.595Z,99.13
2023-01-11T09:36:08.559Z,82.07
2023-01-11T09:37:11.575Z,110.60
2023-01-11T09:38:13.325Z,109.00
2023-01-11T09:39:18.812Z,71.43
2023-01-11T09:40:23.198Z,91.13
2023-01-11T09:41:38.732Z,66.43
2023-01-11T09:42:43.448Z,63.38
2023-01-11T09:43:50.755Z,70.70
2023-01-11T09:44:58.982Z,62.97
2023-01-11T09:46:06.756Z,60.80
2023-01-11T09:47:14.730Z,76.18
2023-01-11T09:48:26.981Z,60.60
2023-01-11T09:49:32.594Z,68.70
2023-01-11T09:50:40.005Z,55.80
2023-01-11T09:51:42.397Z,70.82
2023-01-11T09:52:47.456Z,72.25
2023-01-11T09:53:52.415Z,62.58
2023-01-11T09:54:54.545Z,66.78
2023-01-11T09:55:59.669Z,56.28
2023-01-11T09:57:10.559Z,52.75
2023-01-11T09:58:30.937Z,51.33
2023-01-11T09:59:42.534Z,45.88
2023-01-11T10:00:54.253Z,41.65
2023-01-11T10:02:03.578Z,47.08
2023-01-11T10:03:31.273Z,39.45
2023-01-11T10:04:58.526Z,42.10
2023-01-11T10:06:09.048Z,37.97
2023-01-11T10:07:24.946Z,39.00
2023-01-11T10:18:25.525Z,38.53
2023-01-11T10:18:31.357Z,31.95
2023-01-11T10:18:34.255Z,36.65
2023-01-11T10:19:41.347Z,34.50
2023-01-11T10:20:47.536Z,40.50
2023-01-11T10:21:54.668Z,35.47
2023-01-11T10:23:00.798Z,34.58
2023-01-11T10:24:07.373Z,32.50
2023-01-11T10:25:18.659Z,32.15
2023-01-11T10:26:27.560Z,31.08
2023-01-11T10:27:34.378Z,27.25
2023-01-11T10:28:43.225Z,34.83
2023-01-11T10:30:08.317Z,34.17
2023-01-11T10:31:29.876Z,28.40
2023-01-11T10:32:54.131Z,33.03
2023-01-11T10:34:18.570Z,31.52
2023-01-11T10:35:41.167Z,30.92
2023-01-11T10:37:04.832Z,28.52
2023-01-11T10:38:30.814Z,34.10
2023-01-11T10:39:55.555Z,33.30
2023-01-11T10:41:08.304Z,31.35
2023-01-11T10:42:16.703Z,30.15
2023-01-11T10:43:21.837Z,26.73
2023-01-11T10:44:31.801Z,29.70
2023-01-11T10:45:38.449Z,29.55
2023-01-11T10:46:45.168Z,28.77
2023-01-11T10:47:56.451Z,32.50
2023-01-11T10:49:04.735Z,29.38
2023-01-11T10:50:15.699Z,29.08
2023-01-11T10:51:40.802Z,29.98
2023-01-11T10:52:47.925Z,29.65
2023-01-11T10:53:59.776Z,27.92
2023-01-11T10:55:12.788Z,27.55
2023-01-11T10:56:23.162Z,26.17
2023-01-11T10:57:39.815Z,26.67
2023-01-11T10:59:15.705Z,24.52
2023-01-11T11:00:22.658Z,28.70
2023-01-11T11:01:50.258Z,29.08
2023-01-11T11:03:22.630Z,25.05
2023-01-11T11:04:37.406Z,27.42
2023-01-11T11:05:43.944Z,23.00
2023-01-11T11:06:55.293Z,25.73
2023-01-11T11:08:02.919Z,26.17
2023-01-11T11:09:13.110Z,25.70
2023-01-11T11:10:21.741Z,27.58
2023-01-11T11:11:31.654Z,23.65
2023-01-11T11:12:41.573Z,28.33
2023-01-11T11:13:50.607Z,22.65
2023-01-11T11:14:59.740Z,22.65
2023-01-11T11:16:05.222Z,23.60
2023-01-11T11:17:16.332Z,24.02
2023-01-11T11:18:19.452Z,22.65
2023-01-11T11:19:25.681Z,21.50
2023-01-11T11:20:31.477Z,21.48
2023-01-11T11:21:37.407Z,25.20
2023-01-11T11:22:40.398Z,22.95
2023-01-11T11:23:42.957Z,24.33
2023-01-11T11:24:50.472Z,24.85
2023-01-11T11:25:57.889Z,25.38
2023-01-11T11:27:04.418Z,26.73
2023-01-11T11:28:09.130Z,22.65
2023-01-11T11:29:12.984Z,25.65
2023-01-11T11:30:27.315Z,23.20
2023-01-11T11:31:31.193Z,24.73
2023-01-11T11:32:37.135Z,22.58
2023-01-11T11:33:41.228Z,26.38
2023-01-11T11:34:48.232Z,25.55
2023-01-11T11:35:57.101Z,25.83
2023-01-11T11:37:01.613Z,24.30
2023-01-11T11:38:04.775Z,24.58
2023-01-11T11:39:11.073Z,26.45
2023-01-11T11:40:29.406Z,23.08
2023-01-11T11:41:46.413Z,27.92
2023-01-11T11:42:49.254Z,24.50
2023-01-11T11:43:52.012Z,27.38
2023-01-11T11:45:12.676Z,26.67
2023-01-11T11:46:24.246Z,26.23
2023-01-11T11:47:26.971Z,24.70
2023-01-11T11:48:31.362Z,22.73
2023-01-11T11:49:34.819Z,24.45
2023-01-11T11:50:46.153Z,23.30
2023-01-11T11:51:49.500Z,21.13
2023-01-11T11:52:54.662Z,18.67
2023-01-11T11:53:57.835Z,20.23
2023-01-11T11:55:00.732Z,20.08
2023-01-11T11:56:08.979Z,19.60
2023-01-11T11:57:16.995Z,17.20
2023-01-11T11:58:21.238Z,17.65
2023-01-11T11:59:26.689Z,19.15
2023-01-11T12:00:31.193Z,19.13
2023-01-11T12:01:35.473Z,15.85
2023-01-11T12:02:44.992Z,16.38
2023-01-11T12:03:48.834Z,17.02
2023-01-11T12:04:52.095Z,18.70
2023-01-11T12:05:58.624Z,18.75
2023-01-11T12:07:09.387Z,19.40
2023-01-11T12:08:15.777Z,21.95
2023-01-11T12:09:25.443Z,22.60
2023-01-11T12:10:29.225Z,22.80
2023-01-11T12:11:34.992Z,23.13
2023-01-11T12:12:50.165Z,22.73
2023-01-11T12:14:02.942Z,24.75
2023-01-11T12:15:19.614Z,20.17
2023-01-11T12:16:23.639Z,23.65
2023-01-11T12:17:27.377Z,20.92
2023-01-11T12:18:33.197Z,20.05
2023-01-11T12:19:41.188Z,21.20
2023-01-11T12:20:44.760Z,24.23
2023-01-11T12:21:48.858Z,20.95
2023-01-11T12:23:09.917Z,24.40
2023-01-11T12:24:17.266Z,24.83
2023-01-11T12:25:21.941Z,24.48
2023-01-11T12:26:27.629Z,23.92
2023-01-11T12:27:38.019Z,26.48
2023-01-11T12:29:18.391Z,26.42
2023-01-11T12:30:25.511Z,30.20
2023-01-11T12:31:33.664Z,25.67
2023-01-11T12:33:03.216Z,22.77
2023-01-11T12:34:11.627Z,26.20
2023-01-11T12:35:36.652Z,22.58
2023-01-11T12:36:46.512Z,23.52
2023-01-11T12:38:05.977Z,25.63
2023-01-11T12:39:16.843Z,23.88
2023-01-11T12:40:24.243Z,24.42
2023-01-11T12:41:47.964Z,24.88
2023-01-11T12:43:02.285Z,28.35
2023-01-11T12:44:05.636Z,25.42
2023-01-11T12:45:17.587Z,24.73
2023-01-11T12:46:26.127Z,23.88
2023-01-11T12:47:48.203Z,26.58
2023-01-11T12:49:05.517Z,25.85
2023-01-11T12:50:12.823Z,25.63
2023-01-11T12:51:25.377Z,28.35
2023-01-11T12:52:52.592Z,26.92
2023-01-11T12:54:04.568Z,26.50
2023-01-11T12:55:20.556Z,24.20
2023-01-11T12:56:33.532Z,26.23
2023-01-11T12:57:46.333Z,25.52
2023-01-11T12:58:53.034Z,22.65
2023-01-11T13:00:20.003Z,29.10
2023-01-11T13:01:36.400Z,23.17
2023-01-11T13:03:03.643Z,22.95
2023-01-11T13:04:42.263Z,22.05
2023-01-11T13:05:54.892Z,29.85
2023-01-11T13:07:03.815Z,26.13
2023-01-11T13:08:13.691Z,22.30
2023-01-11T13:09:27.050Z,25.10
2023-01-11T13:10:36.481Z,24.42
2023-01-11T13:11:48.663Z,24.95
2023-01-11T13:12:57.671Z,26.95
2023-01-11T13:14:07.058Z,22.73
2023-01-11T13:15:21.026Z,21.40
2023-01-11T13:16:26.525Z,24.05
2023-01-11T13:17:36.126Z,24.27
2023-01-11T13:18:42.106Z,23.13
2023-01-11T13:19:49.820Z,24.48
2023-01-11T13:21:03.593Z,20.30
2023-01-11T13:22:13.684Z,24.80
2023-01-11T13:23:20.218Z,28.00
2023-01-11T13:24:27.263Z,22.80
2023-01-11T13:25:33.703Z,24.70
2023-01-11T13:26:38.565Z,21.67
2023-01-11T13:27:41.222Z,20.10
2023-01-11T13:28:45.597Z,24.17
2023-01-11T13:29:50.312Z,25.65
2023-01-11T13:30:53.252Z,26.13
2023-01-11T13:31:58.797Z,18.40
2023-01-11T13:33:06.012Z,25.08
2023-01-11T13:34:16.194Z,26.63
2023-01-11T13:35:20.267Z,27.88
2023-01-11T13:36:27.874Z,27.25
2023-01-11T13:37:54.811Z,32.58
2023-01-11T13:39:00.199Z,22.00
2023-01-11T13:40:10.405Z,19.70
2023-01-11T13:41:17.583Z,23.00
2023-01-11T13:42:23.207Z,31.52
2023-01-11T13:43:37.673Z,26.10
2023-01-11T13:44:42.638Z,24.67
2023-01-11T13:45:48.917Z,24.77
2023-01-11T13:47:01.709Z,24.05
2023-01-11T13:48:11.975Z,25.25
2023-01-11T13:49:22.235Z,23.45
2023-01-11T13:50:29.207Z,25.67
2023-01-11T13:51:35.077Z,21.00
2023-01-11T13:52:51.267Z,23.60
2023-01-11T13:53:58.389Z,21.67
2023-01-11T13:55:07.176Z,22.80
2023-01-11T13:56:15.806Z,20.73
2023-01-11T13:57:44.484Z,23.83
2023-01-11T13:58:51.938Z,23.13
2023-01-11T13:59:58.711Z,23.80
2023-01-11T14:01:07.510Z,24.23
2023-01-11T14:02:22.060Z,24.08
2023-01-11T14:03:30.279Z,23.40
2023-01-11T14:04:44.399Z,30.75
2023-01-11T14:05:55.693Z,23.48
2023-01-11T14:07:10.818Z,23.77
2023-01-11T14:08:23.710Z,23.75
2023-01-11T14:09:41.608Z,21.10
2023-01-11T14:10:54.567Z,25.15
2023-01-11T14:12:02.337Z,28.80
2023-01-11T14:13:50.358Z,29.13
2023-01-11T14:15:05.673Z,23.20
2023-01-11T14:16:10.983Z,23.85
2023-01-11T14:17:38.294Z,26.45
2023-01-11T14:18:45.059Z,27.38
2023-01-11T14:19:53.591Z,25.25
2023-01-11T14:21:04.008Z,27.83
2023-01-11T14:22:22.493Z,68.38
2023-01-11T14:23:27.910Z,45.83
2023-01-11T14:24:33.422Z,36.80
2023-01-11T14:25:38.589Z,37.80
2023-01-11T14:26:55.715Z,39.20
2023-01-11T14:28:20.055Z,33.67
2023-01-11T14:29:35.503Z,34.60
2023-01-11T14:31:07.812Z,36.92
2023-01-11T14:32:37.569Z,34.67
2023-01-11T14:34:02.137Z,28.33
2023-01-11T14:35:30.597Z,31.60
2023-01-11T14:36:50.204Z,29.95
2023-01-11T14:38:09.224Z,33.25
2023-01-11T14:39:40.464Z,31.58
2023-01-11T14:40:55.781Z,29.02
2023-01-11T14:42:16.273Z,30.30
2023-01-11T14:43:37.255Z,31.30
2023-01-11T14:44:54.597Z,29.98
2023-01-11T14:46:24.485Z,28.80
2023-01-11T14:47:40.380Z,38.80
2023-01-11T14:48:50.153Z,34.70
2023-01-11T14:50:03.309Z,32.60